Hitchins, KY

9:25 AM EST on February 13, 2016 (GMT -0500)
Marathon Petroleum Savage Branch Nature Reserve | | Change Station
CLOSE
Current Station
Personal Weather Station
Location: Catlettsburg, KY
Elevation: 584 ft
Nearby Weather Stations

Elev 584 ft 38.34 °N, 82.61 °W | Updated 11 minutes ago

Overcast
Overcast
14.8 °F
Feels Like 8 °F
N
4.0
Wind Variable Wind from NW
Gusts 11.0 mph

Today
High -- | Low -- °F
--% Chance of Precip.
Yesterday
High -- | Low -- °F
Precip. -- in
Pressure 30.51 in
Visibility 4.0 miles
Clouds Mostly Cloudy 2600 ft
Overcast 3600 ft
Windchill 8 °F
Dew Point 9 °F
Humidity 80%
Rainfall 0.00 in
Snow Depth Not available.
7:24 AM 6:07 PM
Waxing Crescent, 31% visible
METAR KHTS 131351Z 33011G17KT 4SM -SN BKN026 OVC036 M09/M15 A3047 RMK AO2 SNB05E12B40 SLP329 P0000 T10941150
Pressure 30.51 in
Visibility 4.0 miles
Clouds Mostly Cloudy 2600 ft
Overcast 3600 ft
Windchill 8 °F
Dew Point 9 °F
Humidity 80%
Rainfall 0.00 in
Snow Depth Not available.
7:24 AM 6:07 PM
Waxing Crescent, 31% visible
METAR KHTS 131351Z 33011G17KT 4SM -SN BKN026 OVC036 M09/M15 A3047 RMK AO2 SNB05E12B40 SLP329 P0000 T10941150

10-Day Weather Forecast

Almanac

Astronomy

Feb. 13, 2016 Rise Set
Actual Time
Civil Twilight
Nautical Twilight
Astronomical Twilight
Moon
Length of Visible Light
Length of Day
Tomorrow will be .
, % of the Moon is Illuminated

Today's Extremes

State Highs State Lows

Community

WunderPhotos

Upload Photos

1,892,558 photos uploaded!

WunderBlog® & News

Nearby

Air Quality

  Air Quality AQ Index Pollutant
Not available.

Snow Depth

Station Depth Elevation

Earthquake Activity

City Distance Mag. Time & Date
Minimum magnitude displayed is 2.5.

Coastal Water Temperatures

Place Temperature

Stations

Nearby Weather Stations

Station Location Temp. Windchill Dew Point Humidity Wind Precip. Elev Updated Type
                   

Watches & Warnings

There are currently no watches in effect.